sensor_id;sensor_type;location;lat;lon;timestamp;P1;durP1;ratioP1;P2;durP2;ratioP2
54705;SDS011;40603;48.774;8.916;2023-04-15T00:00:45;7.78;;;2.78;;
54705;SDS011;40603;48.774;8.916;2023-04-15T00:03:11;7.50;;;3.03;;
54705;SDS011;40603;48.774;8.916;2023-04-15T00:05:37;7.75;;;3.00;;
54705;SDS011;40603;48.774;8.916;2023-04-15T00:08:02;5.60;;;2.53;;
54705;SDS011;40603;48.774;8.916;2023-04-15T00:10:28;7.03;;;3.25;;
54705;SDS011;40603;48.774;8.916;2023-04-15T00:12:57;4.13;;;2.50;;
54705;SDS011;40603;48.774;8.916;2023-04-15T00:15:22;5.15;;;2.75;;
54705;SDS011;40603;48.774;8.916;2023-04-15T00:17:49;9.10;;;2.80;;
54705;SDS011;40603;48.774;8.916;2023-04-15T00:20:15;6.97;;;3.30;;
54705;SDS011;40603;48.774;8.916;2023-04-15T00:22:41;9.90;;;3.10;;
54705;SDS011;40603;48.774;8.916;2023-04-15T00:25:06;8.18;;;2.50;;
54705;SDS011;40603;48.774;8.916;2023-04-15T00:27:33;6.65;;;2.70;;
54705;SDS011;40603;48.774;8.916;2023-04-15T00:29:58;7.07;;;2.83;;
54705;SDS011;40603;48.774;8.916;2023-04-15T00:32:24;6.47;;;2.60;;
54705;SDS011;40603;48.774;8.916;2023-04-15T00:34:49;6.25;;;2.95;;
54705;SDS011;40603;48.774;8.916;2023-04-15T00:37:15;6.05;;;2.53;;
54705;SDS011;40603;48.774;8.916;2023-04-15T00:39:40;7.05;;;2.42;;
54705;SDS011;40603;48.774;8.916;2023-04-15T00:42:05;6.10;;;2.00;;
54705;SDS011;40603;48.774;8.916;2023-04-15T00:44:31;3.55;;;2.22;;
54705;SDS011;40603;48.774;8.916;2023-04-15T00:46:57;6.30;;;2.53;;
54705;SDS011;40603;48.774;8.916;2023-04-15T00:49:24;3.25;;;1.73;;
54705;SDS011;40603;48.774;8.916;2023-04-15T00:51:49;7.22;;;2.50;;
54705;SDS011;40603;48.774;8.916;2023-04-15T00:54:15;5.72;;;2.53;;
54705;SDS011;40603;48.774;8.916;2023-04-15T00:56:40;6.53;;;2.75;;
54705;SDS011;40603;48.774;8.916;2023-04-15T00:59:06;7.65;;;2.85;;
54705;SDS011;40603;48.774;8.916;2023-04-15T01:01:32;5.15;;;2.42;;
54705;SDS011;40603;48.774;8.916;2023-04-15T01:04:01;7.57;;;2.30;;
54705;SDS011;40603;48.774;8.916;2023-04-15T01:06:27;4.68;;;2.05;;
54705;SDS011;40603;48.774;8.916;2023-04-15T01:08:53;4.35;;;2.50;;
54705;SDS011;40603;48.774;8.916;2023-04-15T01:11:18;6.85;;;2.20;;
54705;SDS011;40603;48.774;8.916;2023-04-15T01:13:45;4.60;;;2.40;;
54705;SDS011;40603;48.774;8.916;2023-04-15T01:16:10;6.80;;;2.00;;
54705;SDS011;40603;48.774;8.916;2023-04-15T01:18:36;9.82;;;3.38;;
54705;SDS011;40603;48.774;8.916;2023-04-15T01:21:02;7.68;;;2.63;;
54705;SDS011;40603;48.774;8.916;2023-04-15T01:23:29;4.32;;;2.00;;
54705;SDS011;40603;48.774;8.916;2023-04-15T01:25:55;5.13;;;2.42;;
54705;SDS011;40603;48.774;8.916;2023-04-15T01:28:20;9.10;;;2.55;;
54705;SDS011;40603;48.774;8.916;2023-04-15T01:30:46;8.45;;;2.80;;
54705;SDS011;40603;48.774;8.916;2023-04-15T01:33:11;7.68;;;2.72;;
54705;SDS011;40603;48.774;8.916;2023-04-15T01:35:37;6.03;;;2.60;;
54705;SDS011;40603;48.774;8.916;2023-04-15T01:38:04;8.80;;;3.47;;
54705;SDS011;40603;48.774;8.916;2023-04-15T01:40:33;5.97;;;2.33;;
54705;SDS011;40603;48.774;8.916;2023-04-15T01:42:59;4.93;;;2.60;;
54705;SDS011;40603;48.774;8.916;2023-04-15T01:45:25;6.30;;;2.85;;
54705;SDS011;40603;48.774;8.916;2023-04-15T01:47:50;5.70;;;2.78;;
54705;SDS011;40603;48.774;8.916;2023-04-15T01:50:15;3.75;;;2.20;;
54705;SDS011;40603;48.774;8.916;2023-04-15T01:52:41;5.07;;;2.22;;
54705;SDS011;40603;48.774;8.916;2023-04-15T01:55:06;5.55;;;2.20;;
54705;SDS011;40603;48.774;8.916;2023-04-15T01:57:33;4.65;;;2.47;;
54705;SDS011;40603;48.774;8.916;2023-04-15T01:59:58;4.63;;;2.40;;
54705;SDS011;40603;48.774;8.916;2023-04-15T02:02:23;5.50;;;2.25;;
54705;SDS011;40603;48.774;8.916;2023-04-15T02:04:49;6.57;;;2.45;;
54705;SDS011;40603;48.774;8.916;2023-04-15T02:07:14;3.50;;;1.80;;
54705;SDS011;40603;48.774;8.916;2023-04-15T02:09:39;5.70;;;2.78;;
54705;SDS011;40603;48.774;8.916;2023-04-15T02:12:04;4.25;;;2.50;;
54705;SDS011;40603;48.774;8.916;2023-04-15T02:14:30;7.32;;;2.85;;
54705;SDS011;40603;48.774;8.916;2023-04-15T02:16:55;4.30;;;2.50;;
54705;SDS011;40603;48.774;8.916;2023-04-15T02:19:20;5.25;;;2.20;;
54705;SDS011;40603;48.774;8.916;2023-04-15T02:21:46;5.38;;;2.47;;
54705;SDS011;40603;48.774;8.916;2023-04-15T02:24:11;6.35;;;2.53;;
54705;SDS011;40603;48.774;8.916;2023-04-15T02:26:36;5.18;;;2.20;;
54705;SDS011;40603;48.774;8.916;2023-04-15T02:29:02;8.00;;;2.70;;
54705;SDS011;40603;48.774;8.916;2023-04-15T02:31:27;5.05;;;2.38;;
54705;SDS011;40603;48.774;8.916;2023-04-15T02:33:53;6.22;;;2.60;;
54705;SDS011;40603;48.774;8.916;2023-04-15T02:36:18;5.10;;;2.47;;
54705;SDS011;40603;48.774;8.916;2023-04-15T02:38:45;4.97;;;2.63;;
54705;SDS011;40603;48.774;8.916;2023-04-15T02:41:10;10.63;;;2.45;;
54705;SDS011;40603;48.774;8.916;2023-04-15T02:43:35;6.43;;;2.55;;
54705;SDS011;40603;48.774;8.916;2023-04-15T02:46:02;9.02;;;3.13;;
54705;SDS011;40603;48.774;8.916;2023-04-15T02:48:27;5.45;;;2.72;;
54705;SDS011;40603;48.774;8.916;2023-04-15T02:50:52;9.27;;;2.50;;
54705;SDS011;40603;48.774;8.916;2023-04-15T02:53:18;8.43;;;2.92;;
54705;SDS011;40603;48.774;8.916;2023-04-15T02:55:44;13.13;;;2.95;;
54705;SDS011;40603;48.774;8.916;2023-04-15T02:58:09;4.35;;;2.58;;
54705;SDS011;40603;48.774;8.916;2023-04-15T03:00:34;6.10;;;2.47;;
54705;SDS011;40603;48.774;8.916;2023-04-15T03:03:01;7.53;;;2.95;;
54705;SDS011;40603;48.774;8.916;2023-04-15T03:05:27;5.97;;;2.50;;
54705;SDS011;40603;48.774;8.916;2023-04-15T03:07:53;6.82;;;2.90;;
54705;SDS011;40603;48.774;8.916;2023-04-15T03:10:18;7.13;;;2.45;;
54705;SDS011;40603;48.774;8.916;2023-04-15T03:12:44;11.25;;;2.42;;
54705;SDS011;40603;48.774;8.916;2023-04-15T03:15:09;5.18;;;2.67;;
54705;SDS011;40603;48.774;8.916;2023-04-15T03:17:36;5.90;;;2.70;;
54705;SDS011;40603;48.774;8.916;2023-04-15T03:20:02;4.55;;;2.28;;
54705;SDS011;40603;48.774;8.916;2023-04-15T03:22:30;8.25;;;2.88;;
54705;SDS011;40603;48.774;8.916;2023-04-15T03:24:56;5.82;;;2.42;;
54705;SDS011;40603;48.774;8.916;2023-04-15T03:27:21;4.35;;;2.40;;
54705;SDS011;40603;48.774;8.916;2023-04-15T03:29:47;3.35;;;2.03;;
54705;SDS011;40603;48.774;8.916;2023-04-15T03:32:12;6.32;;;2.55;;
54705;SDS011;40603;48.774;8.916;2023-04-15T03:34:39;6.22;;;2.83;;
54705;SDS011;40603;48.774;8.916;2023-04-15T03:37:05;4.95;;;2.60;;
54705;SDS011;40603;48.774;8.916;2023-04-15T03:39:30;3.88;;;2.30;;
54705;SDS011;40603;48.774;8.916;2023-04-15T03:41:56;4.75;;;2.25;;
54705;SDS011;40603;48.774;8.916;2023-04-15T03:44:21;4.20;;;2.67;;
54705;SDS011;40603;48.774;8.916;2023-04-15T03:46:47;6.38;;;2.58;;
54705;SDS011;40603;48.774;8.916;2023-04-15T03:49:12;8.05;;;2.75;;
54705;SDS011;40603;48.774;8.916;2023-04-15T03:51:37;6.75;;;2.50;;
54705;SDS011;40603;48.774;8.916;2023-04-15T03:54:03;6.05;;;2.75;;
54705;SDS011;40603;48.774;8.916;2023-04-15T03:56:28;5.22;;;2.55;;
54705;SDS011;40603;48.774;8.916;2023-04-15T03:58:54;5.13;;;2.38;;
54705;SDS011;40603;48.774;8.916;2023-04-15T04:01:19;5.43;;;2.70;;
54705;SDS011;40603;48.774;8.916;2023-04-15T04:03:45;10.18;;;2.63;;
54705;SDS011;40603;48.774;8.916;2023-04-15T04:06:10;5.72;;;2.20;;
54705;SDS011;40603;48.774;8.916;2023-04-15T04:08:36;4.00;;;2.78;;
54705;SDS011;40603;48.774;8.916;2023-04-15T04:11:01;5.65;;;2.58;;
54705;SDS011;40603;48.774;8.916;2023-04-15T04:13:27;6.05;;;2.47;;
54705;SDS011;40603;48.774;8.916;2023-04-15T04:15:52;7.32;;;2.85;;
54705;SDS011;40603;48.774;8.916;2023-04-15T04:18:17;12.02;;;2.78;;
54705;SDS011;40603;48.774;8.916;2023-04-15T04:20:43;8.50;;;2.63;;
54705;SDS011;40603;48.774;8.916;2023-04-15T04:23:08;8.32;;;2.60;;
54705;SDS011;40603;48.774;8.916;2023-04-15T04:25:33;6.20;;;2.58;;
54705;SDS011;40603;48.774;8.916;2023-04-15T04:27:59;3.50;;;2.70;;
54705;SDS011;40603;48.774;8.916;2023-04-15T04:30:24;5.57;;;2.47;;
54705;SDS011;40603;48.774;8.916;2023-04-15T04:32:50;5.00;;;2.40;;
54705;SDS011;40603;48.774;8.916;2023-04-15T04:35:15;5.50;;;2.40;;
54705;SDS011;40603;48.774;8.916;2023-04-15T04:37:40;5.68;;;2.78;;
54705;SDS011;40603;48.774;8.916;2023-04-15T04:40:06;9.25;;;2.90;;
54705;SDS011;40603;48.774;8.916;2023-04-15T04:42:32;5.38;;;2.88;;
54705;SDS011;40603;48.774;8.916;2023-04-15T04:44:57;4.88;;;2.75;;
54705;SDS011;40603;48.774;8.916;2023-04-15T04:47:22;6.13;;;2.63;;
54705;SDS011;40603;48.774;8.916;2023-04-15T04:49:48;8.63;;;2.42;;
54705;SDS011;40603;48.774;8.916;2023-04-15T04:52:13;5.68;;;3.42;;
54705;SDS011;40603;48.774;8.916;2023-04-15T04:54:38;5.25;;;2.33;;
54705;SDS011;40603;48.774;8.916;2023-04-15T04:57:04;8.90;;;2.70;;
54705;SDS011;40603;48.774;8.916;2023-04-15T04:59:29;6.40;;;2.63;;
54705;SDS011;40603;48.774;8.916;2023-04-15T05:01:54;3.90;;;2.58;;
54705;SDS011;40603;48.774;8.916;2023-04-15T05:04:20;6.55;;;2.85;;
54705;SDS011;40603;48.774;8.916;2023-04-15T05:06:45;5.78;;;2.70;;
54705;SDS011;40603;48.774;8.916;2023-04-15T05:09:11;7.28;;;2.78;;
54705;SDS011;40603;48.774;8.916;2023-04-15T05:11:36;6.50;;;2.80;;
54705;SDS011;40603;48.774;8.916;2023-04-15T05:14:01;6.07;;;2.65;;
54705;SDS011;40603;48.774;8.916;2023-04-15T05:16:27;6.68;;;2.38;;
54705;SDS011;40603;48.774;8.916;2023-04-15T05:18:52;6.00;;;2.10;;
54705;SDS011;40603;48.774;8.916;2023-04-15T05:21:18;5.68;;;2.78;;
54705;SDS011;40603;48.774;8.916;2023-04-15T05:23:43;9.25;;;2.83;;
54705;SDS011;40603;48.774;8.916;2023-04-15T05:26:08;6.75;;;2.63;;
54705;SDS011;40603;48.774;8.916;2023-04-15T05:28:33;10.05;;;2.88;;
54705;SDS011;40603;48.774;8.916;2023-04-15T05:30:59;6.82;;;3.03;;
54705;SDS011;40603;48.774;8.916;2023-04-15T05:33:25;7.88;;;2.75;;
54705;SDS011;40603;48.774;8.916;2023-04-15T05:35:51;6.70;;;2.78;;
54705;SDS011;40603;48.774;8.916;2023-04-15T05:38:17;6.03;;;2.40;;
54705;SDS011;40603;48.774;8.916;2023-04-15T05:40:42;5.53;;;2.75;;
54705;SDS011;40603;48.774;8.916;2023-04-15T05:43:07;5.45;;;3.17;;
54705;SDS011;40603;48.774;8.916;2023-04-15T05:45:33;5.35;;;2.78;;
54705;SDS011;40603;48.774;8.916;2023-04-15T05:47:58;10.80;;;2.88;;
54705;SDS011;40603;48.774;8.916;2023-04-15T05:50:23;5.82;;;3.50;;
54705;SDS011;40603;48.774;8.916;2023-04-15T05:52:49;7.55;;;3.20;;
54705;SDS011;40603;48.774;8.916;2023-04-15T05:55:14;8.70;;;3.45;;
54705;SDS011;40603;48.774;8.916;2023-04-15T05:57:40;6.90;;;3.15;;
54705;SDS011;40603;48.774;8.916;2023-04-15T06:00:05;6.20;;;3.03;;
54705;SDS011;40603;48.774;8.916;2023-04-15T06:02:31;8.10;;;3.42;;
54705;SDS011;40603;48.774;8.916;2023-04-15T06:04:56;13.98;;;4.22;;
54705;SDS011;40603;48.774;8.916;2023-04-15T06:07:22;8.43;;;4.28;;
54705;SDS011;40603;48.774;8.916;2023-04-15T06:09:47;7.43;;;4.07;;
54705;SDS011;40603;48.774;8.916;2023-04-15T06:12:13;9.73;;;4.18;;
54705;SDS011;40603;48.774;8.916;2023-04-15T06:14:38;7.78;;;3.50;;
54705;SDS011;40603;48.774;8.916;2023-04-15T06:17:04;11.23;;;3.20;;
54705;SDS011;40603;48.774;8.916;2023-04-15T06:19:30;5.75;;;2.88;;
54705;SDS011;40603;48.774;8.916;2023-04-15T06:21:55;5.53;;;3.20;;
54705;SDS011;40603;48.774;8.916;2023-04-15T06:24:22;9.20;;;3.00;;
54705;SDS011;40603;48.774;8.916;2023-04-15T06:26:47;5.80;;;3.03;;
54705;SDS011;40603;48.774;8.916;2023-04-15T06:29:12;8.05;;;3.40;;
54705;SDS011;40603;48.774;8.916;2023-04-15T06:31:38;8.95;;;3.28;;
54705;SDS011;40603;48.774;8.916;2023-04-15T06:34:03;7.50;;;3.92;;
54705;SDS011;40603;48.774;8.916;2023-04-15T06:36:29;7.93;;;3.65;;
54705;SDS011;40603;48.774;8.916;2023-04-15T06:38:54;7.25;;;3.05;;
54705;SDS011;40603;48.774;8.916;2023-04-15T06:41:21;7.47;;;2.95;;
54705;SDS011;40603;48.774;8.916;2023-04-15T06:43:46;8.68;;;3.15;;
54705;SDS011;40603;48.774;8.916;2023-04-15T06:46:11;5.82;;;3.30;;
54705;SDS011;40603;48.774;8.916;2023-04-15T06:48:37;8.45;;;3.38;;
54705;SDS011;40603;48.774;8.916;2023-04-15T06:51:02;7.32;;;3.05;;
54705;SDS011;40603;48.774;8.916;2023-04-15T06:53:28;7.30;;;2.95;;
54705;SDS011;40603;48.774;8.916;2023-04-15T06:55:53;7.43;;;3.42;;
54705;SDS011;40603;48.774;8.916;2023-04-15T06:58:18;6.90;;;3.33;;
54705;SDS011;40603;48.774;8.916;2023-04-15T07:00:44;6.93;;;3.10;;
54705;SDS011;40603;48.774;8.916;2023-04-15T07:03:10;9.70;;;3.28;;
54705;SDS011;40603;48.774;8.916;2023-04-15T07:05:36;10.85;;;3.40;;
54705;SDS011;40603;48.774;8.916;2023-04-15T07:08:02;6.80;;;3.55;;
54705;SDS011;40603;48.774;8.916;2023-04-15T07:10:27;10.23;;;2.78;;
54705;SDS011;40603;48.774;8.916;2023-04-15T07:12:53;8.93;;;3.53;;
54705;SDS011;40603;48.774;8.916;2023-04-15T07:15:18;7.22;;;3.55;;
54705;SDS011;40603;48.774;8.916;2023-04-15T07:17:44;8.13;;;3.22;;
54705;SDS011;40603;48.774;8.916;2023-04-15T07:20:09;8.00;;;3.78;;
54705;SDS011;40603;48.774;8.916;2023-04-15T07:22:35;8.05;;;3.10;;
54705;SDS011;40603;48.774;8.916;2023-04-15T07:25:00;5.90;;;2.97;;
54705;SDS011;40603;48.774;8.916;2023-04-15T07:27:25;9.32;;;3.40;;
54705;SDS011;40603;48.774;8.916;2023-04-15T07:29:51;6.00;;;3.22;;
54705;SDS011;40603;48.774;8.916;2023-04-15T07:32:17;6.28;;;3.13;;
54705;SDS011;40603;48.774;8.916;2023-04-15T07:34:42;8.52;;;3.08;;
54705;SDS011;40603;48.774;8.916;2023-04-15T07:37:08;7.80;;;3.08;;
54705;SDS011;40603;48.774;8.916;2023-04-15T07:39:33;9.65;;;3.03;;
54705;SDS011;40603;48.774;8.916;2023-04-15T07:41:59;8.95;;;3.22;;
54705;SDS011;40603;48.774;8.916;2023-04-15T07:44:25;5.30;;;2.40;;
54705;SDS011;40603;48.774;8.916;2023-04-15T07:46:50;8.13;;;2.83;;
54705;SDS011;40603;48.774;8.916;2023-04-15T07:49:16;8.23;;;3.08;;
54705;SDS011;40603;48.774;8.916;2023-04-15T07:51:43;7.20;;;3.10;;
54705;SDS011;40603;48.774;8.916;2023-04-15T07:54:08;6.63;;;2.85;;
54705;SDS011;40603;48.774;8.916;2023-04-15T07:56:33;8.52;;;2.70;;
54705;SDS011;40603;48.774;8.916;2023-04-15T07:58:59;9.57;;;3.63;;
54705;SDS011;40603;48.774;8.916;2023-04-15T08:01:26;8.18;;;3.22;;
54705;SDS011;40603;48.774;8.916;2023-04-15T08:03:51;7.35;;;2.85;;
54705;SDS011;40603;48.774;8.916;2023-04-15T08:06:17;8.00;;;2.70;;
54705;SDS011;40603;48.774;8.916;2023-04-15T08:08:42;7.65;;;3.20;;
54705;SDS011;40603;48.774;8.916;2023-04-15T08:11:07;6.60;;;2.72;;
54705;SDS011;40603;48.774;8.916;2023-04-15T08:13:33;5.88;;;2.78;;
54705;SDS011;40603;48.774;8.916;2023-04-15T08:16:12;8.80;;;2.70;;
54705;SDS011;40603;48.774;8.916;2023-04-15T08:18:38;6.65;;;2.97;;
54705;SDS011;40603;48.774;8.916;2023-04-15T08:21:03;9.80;;;3.03;;
54705;SDS011;40603;48.774;8.916;2023-04-15T08:23:30;7.47;;;2.40;;
54705;SDS011;40603;48.774;8.916;2023-04-15T08:25:55;7.28;;;2.95;;
54705;SDS011;40603;48.774;8.916;2023-04-15T08:28:21;6.50;;;3.05;;
54705;SDS011;40603;48.774;8.916;2023-04-15T08:30:46;5.97;;;2.55;;
54705;SDS011;40603;48.774;8.916;2023-04-15T08:33:12;6.18;;;2.28;;
54705;SDS011;40603;48.774;8.916;2023-04-15T08:35:37;9.07;;;2.30;;
54705;SDS011;40603;48.774;8.916;2023-04-15T08:38:02;11.15;;;2.78;;
54705;SDS011;40603;48.774;8.916;2023-04-15T08:40:29;7.00;;;2.35;;
54705;SDS011;40603;48.774;8.916;2023-04-15T08:43:00;5.70;;;1.95;;
54705;SDS011;40603;48.774;8.916;2023-04-15T08:45:27;3.05;;;1.40;;
54705;SDS011;40603;48.774;8.916;2023-04-15T08:47:53;4.10;;;1.63;;
54705;SDS011;40603;48.774;8.916;2023-04-15T08:50:20;7.25;;;1.45;;
54705;SDS011;40603;48.774;8.916;2023-04-15T08:52:46;4.85;;;1.27;;
54705;SDS011;40603;48.774;8.916;2023-04-15T08:55:11;3.05;;;1.63;;
54705;SDS011;40603;48.774;8.916;2023-04-15T08:57:37;5.03;;;1.20;;
54705;SDS011;40603;48.774;8.916;2023-04-15T09:00:03;4.82;;;1.45;;
54705;SDS011;40603;48.774;8.916;2023-04-15T09:02:29;5.00;;;1.25;;
54705;SDS011;40603;48.774;8.916;2023-04-15T09:04:55;3.42;;;1.40;;
54705;SDS011;40603;48.774;8.916;2023-04-15T09:07:21;2.97;;;1.40;;
54705;SDS011;40603;48.774;8.916;2023-04-15T09:09:47;4.20;;;1.20;;
54705;SDS011;40603;48.774;8.916;2023-04-15T09:12:12;4.10;;;0.98;;
54705;SDS011;40603;48.774;8.916;2023-04-15T09:14:39;2.08;;;1.00;;
54705;SDS011;40603;48.774;8.916;2023-04-15T09:17:04;5.35;;;1.33;;
54705;SDS011;40603;48.774;8.916;2023-04-15T09:19:30;2.55;;;1.17;;
54705;SDS011;40603;48.774;8.916;2023-04-15T09:21:58;2.83;;;1.20;;
54705;SDS011;40603;48.774;8.916;2023-04-15T09:24:23;3.47;;;1.48;;
54705;SDS011;40603;48.774;8.916;2023-04-15T09:26:53;3.15;;;1.20;;
54705;SDS011;40603;48.774;8.916;2023-04-15T09:29:23;5.95;;;1.13;;
54705;SDS011;40603;48.774;8.916;2023-04-15T09:31:48;4.63;;;1.17;;
54705;SDS011;40603;48.774;8.916;2023-04-15T09:34:14;2.88;;;1.30;;
54705;SDS011;40603;48.774;8.916;2023-04-15T09:39:11;2.70;;;1.23;;
54705;SDS011;40603;48.774;8.916;2023-04-15T09:41:37;2.50;;;1.50;;
54705;SDS011;40603;48.774;8.916;2023-04-15T09:44:03;6.30;;;1.33;;
54705;SDS011;40603;48.774;8.916;2023-04-15T09:46:44;3.13;;;1.38;;
54705;SDS011;40603;48.774;8.916;2023-04-15T09:49:10;4.63;;;1.45;;
54705;SDS011;40603;48.774;8.916;2023-04-15T09:51:36;2.67;;;1.10;;
54705;SDS011;40603;48.774;8.916;2023-04-15T09:54:01;4.95;;;1.80;;
54705;SDS011;40603;48.774;8.916;2023-04-15T09:56:37;5.60;;;1.52;;
54705;SDS011;40603;48.774;8.916;2023-04-15T09:59:06;4.72;;;1.42;;
54705;SDS011;40603;48.774;8.916;2023-04-15T10:01:32;2.95;;;1.08;;
54705;SDS011;40603;48.774;8.916;2023-04-15T10:03:57;2.92;;;1.67;;
54705;SDS011;40603;48.774;8.916;2023-04-15T10:06:24;3.35;;;1.50;;
54705;SDS011;40603;48.774;8.916;2023-04-15T10:08:50;4.57;;;1.35;;
54705;SDS011;40603;48.774;8.916;2023-04-15T10:11:16;2.13;;;1.17;;
54705;SDS011;40603;48.774;8.916;2023-04-15T10:13:42;3.17;;;1.20;;
54705;SDS011;40603;48.774;8.916;2023-04-15T10:16:09;3.50;;;1.20;;
54705;SDS011;40603;48.774;8.916;2023-04-15T10:18:41;4.10;;;1.48;;
54705;SDS011;40603;48.774;8.916;2023-04-15T10:21:07;3.90;;;1.23;;
54705;SDS011;40603;48.774;8.916;2023-04-15T10:23:33;4.15;;;1.20;;
54705;SDS011;40603;48.774;8.916;2023-04-15T10:25:58;3.08;;;1.13;;
54705;SDS011;40603;48.774;8.916;2023-04-15T10:28:25;3.67;;;1.42;;
54705;SDS011;40603;48.774;8.916;2023-04-15T10:30:51;3.13;;;1.10;;
54705;SDS011;40603;48.774;8.916;2023-04-15T10:33:18;5.88;;;1.70;;
54705;SDS011;40603;48.774;8.916;2023-04-15T10:35:45;2.15;;;1.30;;
54705;SDS011;40603;48.774;8.916;2023-04-15T10:38:30;1.48;;;1.13;;
54705;SDS011;40603;48.774;8.916;2023-04-15T10:41:14;5.97;;;2.13;;
54705;SDS011;40603;48.774;8.916;2023-04-15T10:43:50;7.03;;;1.73;;
54705;SDS011;40603;48.774;8.916;2023-04-15T10:46:24;3.17;;;1.13;;
54705;SDS011;40603;48.774;8.916;2023-04-15T10:51:35;4.97;;;1.38;;
54705;SDS011;40603;48.774;8.916;2023-04-15T10:54:05;3.88;;;1.45;;
54705;SDS011;40603;48.774;8.916;2023-04-15T10:56:33;5.88;;;1.30;;
54705;SDS011;40603;48.774;8.916;2023-04-15T10:58:58;8.10;;;1.55;;
54705;SDS011;40603;48.774;8.916;2023-04-15T11:07:32;6.05;;;1.70;;
54705;SDS011;40603;48.774;8.916;2023-04-15T11:09:58;5.13;;;1.70;;
54705;SDS011;40603;48.774;8.916;2023-04-15T11:12:32;6.03;;;2.13;;
54705;SDS011;40603;48.774;8.916;2023-04-15T11:14:59;4.03;;;2.55;;
54705;SDS011;40603;48.774;8.916;2023-04-15T11:17:27;4.57;;;2.00;;
54705;SDS011;40603;48.774;8.916;2023-04-15T11:19:53;5.57;;;2.20;;
54705;SDS011;40603;48.774;8.916;2023-04-15T11:22:18;6.57;;;2.00;;
54705;SDS011;40603;48.774;8.916;2023-04-15T11:24:47;4.68;;;1.80;;
54705;SDS011;40603;48.774;8.916;2023-04-15T11:27:23;10.85;;;2.85;;
54705;SDS011;40603;48.774;8.916;2023-04-15T11:29:48;7.97;;;2.50;;
54705;SDS011;40603;48.774;8.916;2023-04-15T11:32:14;5.63;;;2.00;;
54705;SDS011;40603;48.774;8.916;2023-04-15T11:34:39;7.05;;;2.05;;
54705;SDS011;40603;48.774;8.916;2023-04-15T11:37:05;5.22;;;2.13;;
54705;SDS011;40603;48.774;8.916;2023-04-15T11:39:30;5.20;;;2.10;;
54705;SDS011;40603;48.774;8.916;2023-04-15T11:41:56;4.72;;;2.30;;
54705;SDS011;40603;48.774;8.916;2023-04-15T11:44:21;4.95;;;2.40;;
54705;SDS011;40603;48.774;8.916;2023-04-15T11:46:46;6.13;;;2.55;;
54705;SDS011;40603;48.774;8.916;2023-04-15T11:49:24;9.57;;;2.30;;
54705;SDS011;40603;48.774;8.916;2023-04-15T11:51:50;8.07;;;2.75;;
54705;SDS011;40603;48.774;8.916;2023-04-15T11:54:19;4.55;;;2.33;;
54705;SDS011;40603;48.774;8.916;2023-04-15T11:56:48;5.15;;;2.47;;
54705;SDS011;40603;48.774;8.916;2023-04-15T11:59:14;8.30;;;2.72;;
54705;SDS011;40603;48.774;8.916;2023-04-15T12:01:40;4.78;;;2.50;;
54705;SDS011;40603;48.774;8.916;2023-04-15T12:04:11;5.80;;;2.53;;
54705;SDS011;40603;48.774;8.916;2023-04-15T12:06:37;5.97;;;3.20;;
54705;SDS011;40603;48.774;8.916;2023-04-15T12:11:45;6.53;;;3.08;;
54705;SDS011;40603;48.774;8.916;2023-04-15T12:14:12;6.28;;;3.10;;
54705;SDS011;40603;48.774;8.916;2023-04-15T12:16:41;8.52;;;3.55;;
54705;SDS011;40603;48.774;8.916;2023-04-15T12:19:09;6.90;;;4.13;;
54705;SDS011;40603;48.774;8.916;2023-04-15T12:21:37;7.57;;;3.28;;
54705;SDS011;40603;48.774;8.916;2023-04-15T12:24:04;7.97;;;3.25;;
54705;SDS011;40603;48.774;8.916;2023-04-15T12:26:44;5.13;;;2.35;;
54705;SDS011;40603;48.774;8.916;2023-04-15T12:29:12;7.65;;;2.85;;
54705;SDS011;40603;48.774;8.916;2023-04-15T12:31:48;8.35;;;3.47;;
54705;SDS011;40603;48.774;8.916;2023-04-15T12:34:15;5.82;;;2.40;;
54705;SDS011;40603;48.774;8.916;2023-04-15T12:36:41;6.90;;;2.83;;
54705;SDS011;40603;48.774;8.916;2023-04-15T12:39:07;4.95;;;2.22;;
54705;SDS011;40603;48.774;8.916;2023-04-15T12:41:33;3.63;;;2.17;;
54705;SDS011;40603;48.774;8.916;2023-04-15T12:43:58;6.05;;;2.75;;
54705;SDS011;40603;48.774;8.916;2023-04-15T12:46:24;5.25;;;2.75;;
54705;SDS011;40603;48.774;8.916;2023-04-15T12:48:49;5.68;;;2.53;;
54705;SDS011;40603;48.774;8.916;2023-04-15T12:51:15;5.90;;;2.72;;
54705;SDS011;40603;48.774;8.916;2023-04-15T12:53:41;6.93;;;2.30;;
54705;SDS011;40603;48.774;8.916;2023-04-15T12:56:06;4.82;;;2.38;;
54705;SDS011;40603;48.774;8.916;2023-04-15T12:58:31;7.30;;;2.47;;
54705;SDS011;40603;48.774;8.916;2023-04-15T13:00:57;3.85;;;2.40;;
54705;SDS011;40603;48.774;8.916;2023-04-15T13:03:22;5.90;;;2.45;;
54705;SDS011;40603;48.774;8.916;2023-04-15T13:05:48;5.38;;;2.47;;
54705;SDS011;40603;48.774;8.916;2023-04-15T13:08:13;3.58;;;2.40;;
54705;SDS011;40603;48.774;8.916;2023-04-15T13:23:22;8.15;;;3.65;;
54705;SDS011;40603;48.774;8.916;2023-04-15T13:28:33;5.75;;;3.80;;
54705;SDS011;40603;48.774;8.916;2023-04-15T13:30:58;7.10;;;3.28;;
54705;SDS011;40603;48.774;8.916;2023-04-15T13:33:24;5.68;;;2.78;;
54705;SDS011;40603;48.774;8.916;2023-04-15T13:35:50;6.55;;;2.60;;
54705;SDS011;40603;48.774;8.916;2023-04-15T13:38:15;5.70;;;3.15;;
54705;SDS011;40603;48.774;8.916;2023-04-15T13:40:40;5.57;;;2.60;;
54705;SDS011;40603;48.774;8.916;2023-04-15T13:43:06;4.82;;;2.60;;
54705;SDS011;40603;48.774;8.916;2023-04-15T13:45:31;3.63;;;2.30;;
54705;SDS011;40603;48.774;8.916;2023-04-15T13:47:57;4.50;;;1.85;;
54705;SDS011;40603;48.774;8.916;2023-04-15T13:50:22;5.28;;;2.20;;
54705;SDS011;40603;48.774;8.916;2023-04-15T13:52:47;3.10;;;1.40;;
54705;SDS011;40603;48.774;8.916;2023-04-15T13:55:13;6.38;;;1.63;;
54705;SDS011;40603;48.774;8.916;2023-04-15T13:57:38;3.45;;;1.67;;
54705;SDS011;40603;48.774;8.916;2023-04-15T14:00:04;3.30;;;1.25;;
54705;SDS011;40603;48.774;8.916;2023-04-15T14:02:31;1.92;;;1.20;;
54705;SDS011;40603;48.774;8.916;2023-04-15T14:04:56;1.75;;;1.10;;
54705;SDS011;40603;48.774;8.916;2023-04-15T14:07:22;3.03;;;1.35;;
54705;SDS011;40603;48.774;8.916;2023-04-15T14:09:47;1.40;;;1.17;;
54705;SDS011;40603;48.774;8.916;2023-04-15T14:12:12;4.05;;;1.40;;
54705;SDS011;40603;48.774;8.916;2023-04-15T14:14:38;2.53;;;1.50;;
54705;SDS011;40603;48.774;8.916;2023-04-15T14:17:03;1.35;;;1.10;;
54705;SDS011;40603;48.774;8.916;2023-04-15T14:19:29;4.30;;;1.90;;
54705;SDS011;40603;48.774;8.916;2023-04-15T14:21:55;3.05;;;1.35;;
54705;SDS011;40603;48.774;8.916;2023-04-15T14:24:20;5.68;;;1.60;;
54705;SDS011;40603;48.774;8.916;2023-04-15T14:26:45;2.58;;;1.50;;
54705;SDS011;40603;48.774;8.916;2023-04-15T14:29:11;4.45;;;1.40;;
54705;SDS011;40603;48.774;8.916;2023-04-15T14:31:36;4.82;;;1.77;;
54705;SDS011;40603;48.774;8.916;2023-04-15T14:34:02;4.40;;;1.58;;
54705;SDS011;40603;48.774;8.916;2023-04-15T14:36:34;4.90;;;1.90;;
54705;SDS011;40603;48.774;8.916;2023-04-15T14:38:59;1.13;;;1.02;;
54705;SDS011;40603;48.774;8.916;2023-04-15T14:41:30;4.72;;;2.08;;
54705;SDS011;40603;48.774;8.916;2023-04-15T14:43:59;3.75;;;1.75;;
54705;SDS011;40603;48.774;8.916;2023-04-15T14:46:25;3.90;;;1.80;;
54705;SDS011;40603;48.774;8.916;2023-04-15T14:48:51;2.65;;;1.85;;
54705;SDS011;40603;48.774;8.916;2023-04-15T14:51:16;2.80;;;1.45;;
54705;SDS011;40603;48.774;8.916;2023-04-15T14:53:42;4.22;;;2.10;;
54705;SDS011;40603;48.774;8.916;2023-04-15T14:56:11;4.93;;;1.80;;
54705;SDS011;40603;48.774;8.916;2023-04-15T14:58:36;4.78;;;1.70;;
54705;SDS011;40603;48.774;8.916;2023-04-15T15:01:02;6.35;;;1.63;;
54705;SDS011;40603;48.774;8.916;2023-04-15T15:03:31;3.15;;;1.63;;
54705;SDS011;40603;48.774;8.916;2023-04-15T15:05:58;4.43;;;1.92;;
54705;SDS011;40603;48.774;8.916;2023-04-15T15:08:23;3.67;;;2.00;;
54705;SDS011;40603;48.774;8.916;2023-04-15T15:10:49;7.18;;;2.22;;